Time;durP1;ratioP1;P1;durP2;ratioP2;P2;SDS_P1;SDS_P2;PMS_P1;PMS_P2;Temp;Humidity;BMP_temperature;BMP_pressure;BME280_temperature;BME280_humidity;BME280_pressure;Samples;Min_cycle;Max_cycle;Signal;HPM_P1;HPM_P2
2022/12/18 00:02:07;;;;;;;50.42;18.90;;;;;;;-3.57;73.11;99968.66;5089706;28;20028;-71
2022/12/18 00:04:33;;;;;;;53.20;17.55;;;;;;;-3.57;72.84;99976.72;5089225;28;20099;-72
2022/12/18 00:06:58;;;;;;;55.25;17.98;;;;;;;-3.55;72.60;99975.53;5090908;28;20032;-75
2022/12/18 00:09:24;;;;;;;54.60;18.25;;;;;;;-3.53;72.80;99978.06;5074189;28;20040;-72
2022/12/18 00:11:49;;;;;;;51.30;17.13;;;;;;;-3.50;72.75;99983.09;5091229;28;20063;-70
2022/12/18 00:14:15;;;;;;;48.78;17.77;;;;;;;-3.49;72.89;99979.41;5092291;28;20028;-70
2022/12/18 00:16:44;;;;;;;54.13;19.00;;;;;;;-3.46;72.83;99979.03;5090133;28;20027;-70
2022/12/18 00:19:10;;;;;;;48.47;16.52;;;;;;;-3.41;72.96;99984.75;5095436;28;20088;-71
2022/12/18 00:21:35;;;;;;;53.83;20.67;;;;;;;-3.41;72.55;99989.28;5092529;28;20040;-71
2022/12/18 00:24:01;;;;;;;46.83;18.33;;;;;;;-3.41;72.58;99987.44;5091208;28;20480;-71
2022/12/18 00:26:31;;;;;;;50.03;19.42;;;;;;;-3.37;72.77;99998.69;5091753;28;20028;-72
2022/12/18 00:29:00;;;;;;;;;;;;;;;-3.32;72.84;100001.69;5068611;28;20028;-72
2022/12/18 00:31:26;;;;;;;43.58;16.15;;;;;;;-3.30;72.93;100002.38;5088731;28;19923;-71
2022/12/18 00:33:54;;;;;;;46.22;17.02;;;;;;;-3.31;72.99;100003.38;5088406;28;20024;-72
2022/12/18 00:36:25;;;;;;;61.38;19.67;;;;;;;-3.34;72.52;100011.75;5089880;28;20384;-74
2022/12/18 00:38:52;;;;;;;52.22;18.75;;;;;;;-3.32;72.72;100010.56;5090247;28;20031;-73
2022/12/18 00:44:03;;;;;;;49.15;16.63;;;;;;;-3.35;72.23;100012.78;5088645;28;20137;-75
2022/12/18 00:46:29;;;;;;;54.08;17.95;;;;;;;-3.35;72.71;100012.78;5086932;28;20027;-76
2022/12/18 00:48:54;;;;;;;62.70;19.85;;;;;;;-3.37;72.31;100015.59;5089185;28;20016;-76
2022/12/18 00:51:20;;;;;;;54.63;20.23;;;;;;;-3.36;72.37;100019.97;5089826;28;20016;-75
2022/12/18 00:53:45;;;;;;;50.17;18.33;;;;;;;-3.37;72.32;100025.50;5088667;28;20102;-72
2022/12/18 00:56:11;;;;;;;54.67;20.08;;;;;;;-3.39;72.12;100025.66;5089103;28;20035;-73
2022/12/18 00:58:36;;;;;;;55.83;19.80;;;;;;;-3.39;72.39;100032.88;5089070;28;20021;-73
2022/12/18 01:01:04;;;;;;;59.72;19.27;;;;;;;-3.38;72.72;100038.06;5088627;28;20107;-73
2022/12/18 01:03:29;;;;;;;52.63;19.38;;;;;;;-3.33;72.47;100041.09;5089630;28;20051;-67
2022/12/18 01:05:54;;;;;;;64.63;21.48;;;;;;;-3.32;72.13;100036.59;5090953;28;20020;-68
2022/12/18 01:08:20;;;;;;;50.58;18.00;;;;;;;-3.33;72.50;100043.78;5088750;28;20133;-68
2022/12/18 01:10:45;;;;;;;50.33;17.95;;;;;;;-3.30;72.54;100054.19;5088922;28;20016;-67
2022/12/18 01:13:11;;;;;;;57.25;18.33;;;;;;;-3.29;72.41;100038.94;5087987;28;20024;-67
2022/12/18 01:15:36;;;;;;;56.47;18.45;;;;;;;-3.29;72.30;100034.41;5088822;28;20420;-67
2022/12/18 01:18:01;;;;;;;50.17;18.80;;;;;;;-3.28;72.08;100035.25;5089534;28;20028;-67
2022/12/18 01:20:27;;;;;;;46.55;16.80;;;;;;;-3.33;72.07;100041.09;5070330;28;20056;-67
2022/12/18 01:22:52;;;;;;;46.75;17.80;;;;;;;-3.36;72.08;100040.59;5089433;28;20048;-67
2022/12/18 01:25:18;;;;;;;48.38;16.88;;;;;;;-3.44;72.14;100046.78;5089769;28;20050;-67
2022/12/18 01:27:43;;;;;;;50.30;17.42;;;;;;;-3.50;71.91;100042.91;5087943;28;20110;-68
2022/12/18 01:30:09;;;;;;;45.30;16.50;;;;;;;-3.49;72.60;100047.28;5088563;28;20076;-68
2022/12/18 01:32:34;;;;;;;52.78;18.80;;;;;;;-3.47;72.40;100049.81;5070740;28;20395;-68
2022/12/18 01:35:01;;;;;;;51.38;17.95;;;;;;;-3.43;72.27;100053.81;5089591;28;20036;-68
2022/12/18 01:37:27;;;;;;;50.50;17.95;;;;;;;-3.39;72.34;100060.53;5088862;28;20085;-65
2022/12/18 01:39:54;;;;;;;51.67;17.65;;;;;;;-3.37;72.15;100057.69;5088579;28;20032;-66
2022/12/18 01:42:20;;;;;;;46.70;16.77;;;;;;;-3.37;72.76;100061.22;5089705;28;20028;-67
2022/12/18 01:45:11;;;;;;;40.42;14.68;;;;;;;-3.38;72.25;100072.13;5091302;28;20048;-66
2022/12/18 01:47:57;;;;;;;44.53;15.77;;;;;;;-3.38;72.19;100070.25;5080149;28;20043;-66
2022/12/18 01:50:28;;;;;;;40.58;15.07;;;;;;;-3.36;72.11;100078.16;5092921;28;20102;-66
2022/12/18 01:52:59;;;;;;;46.58;16.38;;;;;;;-3.36;72.21;100076.31;5094092;28;20063;-67
2022/12/18 01:55:25;;;;;;;;;;;;;;;-3.35;72.18;100082.53;5094181;28;20099;-67
2022/12/18 01:57:54;;;;;;;44.33;15.98;;;;;;;-3.31;72.06;100079.34;5093713;28;19912;-66
2022/12/18 02:00:21;;;;;;;44.15;15.13;;;;;;;-3.31;72.35;100087.38;5093397;28;20024;-66
2022/12/18 02:02:47;;;;;;;48.83;16.67;;;;;;;-3.28;72.32;100086.22;5074997;28;20028;-66
2022/12/18 02:05:16;;;;;;;49.42;17.13;;;;;;;-3.25;72.09;100087.72;5092854;28;20036;-67
2022/12/18 02:07:53;;;;;;;50.92;17.17;;;;;;;-3.25;72.09;100098.47;5093156;28;20038;-68
2022/12/18 02:10:31;;;;;;;45.20;15.52;;;;;;;-3.24;72.25;100109.03;5091254;28;20388;-68
2022/12/18 02:13:12;;;;;;;49.72;17.33;;;;;;;-3.25;71.98;100104.66;5090980;28;20392;-68
2022/12/18 02:15:59;;;;;;;52.10;18.50;;;;;;;-3.25;72.31;100112.72;5090152;28;20357;-69
2022/12/18 02:18:33;;;;;;;47.42;18.17;;;;;;;-3.29;71.70;100104.16;5089023;28;20067;-68
2022/12/18 02:21:13;;;;;;;56.50;19.90;;;;;;;-3.28;72.24;100102.34;5090562;28;20090;-69
2022/12/18 02:23:57;;;;;;;52.08;17.80;;;;;;;-3.31;72.05;100100.81;5091470;28;20040;-68
2022/12/18 02:26:40;;;;;;;53.95;19.30;;;;;;;-3.30;72.14;100107.84;5093057;28;20064;-67
2022/12/18 02:29:11;;;;;;;52.47;18.85;;;;;;;-3.29;71.95;100106.84;5091311;28;20383;-67
2022/12/18 02:31:43;;;;;;;55.35;18.50;;;;;;;-3.26;71.99;100112.88;5090797;28;20020;-67
2022/12/18 02:34:11;;;;;;;52.10;18.42;;;;;;;-3.29;71.87;100106.84;5091183;28;20120;-69
2022/12/18 02:36:40;;;;;;;54.90;19.33;;;;;;;-3.29;71.70;100114.91;5091611;28;20012;-68
2022/12/18 02:39:08;;;;;;;60.35;20.10;;;;;;;-3.26;71.99;100111.03;5073963;28;20020;-68
2022/12/18 02:41:36;;;;;;;48.70;18.15;;;;;;;-3.27;71.87;100108.53;5092682;28;20028;-68
2022/12/18 02:44:08;;;;;;;49.30;18.58;;;;;;;-3.27;71.98;100117.44;5092320;28;20097;-68
2022/12/18 02:46:37;;;;;;;51.17;20.25;;;;;;;-3.27;71.95;100119.25;5090197;28;20024;-68
2022/12/18 02:49:21;;;;;;;53.08;19.65;;;;;;;-3.31;71.71;100130.31;5092983;28;20541;-68
2022/12/18 02:51:47;;;;;;;54.10;18.77;;;;;;;-3.32;71.80;100127.81;5091370;28;20035;-68
2022/12/18 02:54:36;;;;;;;53.75;18.30;;;;;;;-3.38;71.67;100134.66;5091716;28;20036;-68
2022/12/18 02:57:17;;;;;;;46.57;17.40;;;;;;;-3.39;71.58;100138.34;5090555;28;20028;-67
2022/12/18 03:00:08;;;;;;;48.92;17.65;;;;;;;-3.40;71.82;100139.34;5091141;28;20042;-68
2022/12/18 03:02:41;;;;;;;46.00;17.38;;;;;;;-3.39;71.74;100150.94;5075748;28;20145;-67
2022/12/18 03:05:18;;;;;;;49.85;18.02;;;;;;;-3.41;71.72;100142.19;5091299;28;20487;-67
2022/12/18 03:07:46;;;;;;;55.30;19.10;;;;;;;-3.40;71.82;100149.25;5091116;28;20028;-68
2022/12/18 03:10:14;;;;;;;51.33;18.23;;;;;;;-3.40;71.34;100146.56;5089938;28;20387;-66
2022/12/18 03:12:54;;;;;;;56.17;19.13;;;;;;;-3.40;71.33;100143.88;5090516;28;20027;-66
2022/12/18 03:15:25;;;;;;;52.08;17.38;;;;;;;-3.39;71.95;100142.88;5089359;28;20497;-67
2022/12/18 03:18:06;;;;;;;50.22;17.77;;;;;;;-3.38;71.82;100141.88;5084708;28;20032;-67
2022/12/18 03:20:35;;;;;;;52.35;19.08;;;;;;;-3.37;71.78;100149.75;5090016;28;20059;-67
2022/12/18 03:23:09;;;;;;;58.92;20.35;;;;;;;-3.38;71.89;100161.47;5090900;28;20464;-67
2022/12/18 03:25:39;;;;;;;52.25;18.90;;;;;;;-3.35;71.81;100154.97;5092369;28;20088;-67
2022/12/18 03:28:08;;;;;;;43.92;16.40;;;;;;;-3.33;71.62;100161.00;5091721;28;20406;-68
2022/12/18 03:30:38;;;;;;;60.22;20.00;;;;;;;-3.31;71.41;100161.69;5092898;28;20039;-67
2022/12/18 03:33:23;;;;;;;55.13;18.08;;;;;;;-3.31;72.05;100162.50;5092599;28;20042;-68
2022/12/18 03:35:49;;;;;;;55.63;18.30;;;;;;;-3.27;71.68;100172.94;5092945;28;20739;-68
2022/12/18 03:38:15;;;;;;;55.92;18.48;;;;;;;-3.27;71.67;100168.41;5092476;28;20051;-67
2022/12/18 03:40:58;;;;;;;57.22;19.02;;;;;;;-3.30;71.79;100174.94;5091903;28;20035;-68
2022/12/18 03:43:42;;;;;;;51.97;18.13;;;;;;;-3.33;71.44;100175.25;5092004;28;20055;-67
2022/12/18 03:46:17;;;;;;;54.10;19.15;;;;;;;-3.33;71.45;100179.78;5092011;28;20530;-68
2022/12/18 03:48:50;;;;;;;54.45;18.38;;;;;;;-3.35;71.43;100174.56;5092256;28;20495;-68
2022/12/18 03:51:42;;;;;;;54.25;19.10;;;;;;;-3.35;71.70;100177.25;5073591;28;20102;-67
2022/12/18 03:54:09;;;;;;;57.88;19.77;;;;;;;-3.34;71.52;100175.44;5089729;28;20480;-67
2022/12/18 03:56:47;;;;;;;57.33;20.73;;;;;;;-3.35;71.69;100185.31;5091790;28;20107;-67
2022/12/18 03:59:15;;;;;;;59.78;19.63;;;;;;;-3.37;71.40;100179.25;5092224;28;20032;-67
2022/12/18 04:01:46;;;;;;;57.30;19.45;;;;;;;-3.38;71.74;100179.44;5091447;28;20024;-68
2022/12/18 04:04:14;;;;;;;58.03;19.45;;;;;;;-3.38;71.44;100191.00;5091683;28;20032;-67
2022/12/18 04:06:41;;;;;;;54.55;19.42;;;;;;;-3.40;71.60;100189.50;5056806;28;20055;-67
2022/12/18 04:09:07;;;;;;;56.47;20.08;;;;;;;-3.41;71.59;100187.81;5091575;28;20068;-68
2022/12/18 04:11:33;;;;;;;55.30;19.50;;;;;;;-3.39;72.07;100191.16;5091236;28;20056;-67
2022/12/18 04:13:58;;;;;;;54.22;18.17;;;;;;;-3.40;71.60;100203.72;5090415;28;20035;-68
2022/12/18 04:16:25;;;;;;;57.88;18.83;;;;;;;-3.39;71.86;100202.72;5091309;28;20492;-68
2022/12/18 04:18:50;;;;;;;52.35;17.17;;;;;;;-3.37;71.73;100208.78;5091265;28;20097;-67
2022/12/18 04:21:16;;;;;;;54.83;20.23;;;;;;;-3.34;71.85;100208.44;5090231;28;20127;-68
2022/12/18 04:23:41;;;;;;;56.83;18.88;;;;;;;-3.33;71.61;100212.81;5090054;28;20032;-68
2022/12/18 04:26:07;;;;;;;54.53;18.67;;;;;;;-3.35;71.58;100200.59;5090627;28;20042;-68
2022/12/18 04:28:32;;;;;;;65.60;21.67;;;;;;;-3.34;71.47;100202.25;5091159;28;20464;-68
2022/12/18 04:30:57;;;;;;;60.38;21.48;;;;;;;-3.35;71.46;100211.31;5090325;28;20492;-68
2022/12/18 04:33:23;;;;;;;61.83;20.60;;;;;;;-3.34;71.63;100215.69;5090099;28;20542;-68
2022/12/18 04:35:48;;;;;;;65.32;20.48;;;;;;;-3.32;71.69;100225.22;5090754;28;20036;-68
2022/12/18 04:38:14;;;;;;;56.03;19.60;;;;;;;-3.33;71.36;100220.88;5091300;28;20055;-68
2022/12/18 04:40:39;;;;;;;56.40;18.17;;;;;;;-3.34;71.36;100227.22;5090375;28;20070;-68
2022/12/18 04:43:05;;;;;;;60.30;19.90;;;;;;;-3.34;71.60;100234.47;5090212;28;20036;-67
2022/12/18 04:45:31;;;;;;;55.47;19.20;;;;;;;-3.34;71.71;100219.19;5090103;28;20502;-68
2022/12/18 04:47:58;;;;;;;56.47;18.77;;;;;;;-3.31;71.80;100239.50;5072351;28;20118;-68
2022/12/18 04:50:23;;;;;;;54.50;18.08;;;;;;;-3.30;71.42;100241.19;5072159;28;20325;-68
2022/12/18 04:52:49;;;;;;;56.75;20.13;;;;;;;-3.29;71.62;100241.00;5090041;28;20545;-68
2022/12/18 04:55:14;;;;;;;57.70;20.30;;;;;;;-3.31;71.12;100244.88;5090602;28;20028;-68
2022/12/18 04:57:39;;;;;;;56.28;19.92;;;;;;;-3.33;71.65;100246.88;5090551;28;20020;-68
2022/12/18 05:00:06;;;;;;;56.80;19.80;;;;;;;-3.31;71.52;100252.91;5089976;28;20056;-67
2022/12/18 05:02:32;;;;;;;53.47;18.23;;;;;;;-3.32;71.63;100260.13;5090014;28;20043;-68
2022/12/18 05:04:57;;;;;;;57.33;18.95;;;;;;;-3.31;71.35;100252.91;5090299;28;20020;-68
2022/12/18 05:07:22;;;;;;;54.38;18.80;;;;;;;-3.32;71.37;100260.13;5090402;28;20020;-68
2022/12/18 05:09:48;;;;;;;57.35;19.85;;;;;;;-3.29;71.56;100267.03;5090183;28;20487;-68
2022/12/18 05:12:13;;;;;;;53.78;20.00;;;;;;;-3.29;71.56;100275.91;5089738;28;20024;-68
2022/12/18 05:14:39;;;;;;;53.67;17.65;;;;;;;-3.27;71.46;100261.47;5090666;28;20035;-68
2022/12/18 05:17:04;;;;;;;74.35;26.45;;;;;;;-3.30;71.56;100266.16;5090609;28;20020;-68
2022/12/18 05:19:29;;;;;;;71.57;23.35;;;;;;;-3.27;71.37;100261.47;5090105;28;20036;-68
2022/12/18 05:21:55;;;;;;;62.47;21.90;;;;;;;-3.26;71.22;100265.84;5093238;28;20098;-68
2022/12/18 05:24:20;;;;;;;62.95;22.50;;;;;;;-3.25;71.29;100262.16;5076555;28;20089;-68
2022/12/18 05:26:45;;;;;;;65.28;23.95;;;;;;;-3.22;71.28;100267.22;5094465;28;20028;-68
2022/12/18 05:29:14;;;;;;;60.15;20.50;;;;;;;-3.22;71.35;100268.03;5094769;28;20035;-68
2022/12/18 05:31:39;;;;;;;58.38;18.88;;;;;;;-3.22;71.48;100269.88;5094343;28;20028;-67
2022/12/18 05:34:05;;;;;;;55.88;19.33;;;;;;;-3.22;71.44;100268.03;5092925;28;20088;-68
2022/12/18 05:36:30;;;;;;;55.05;18.30;;;;;;;-3.22;71.32;100277.94;5094614;28;20074;-68
2022/12/18 05:38:56;;;;;;;53.30;17.70;;;;;;;-3.22;71.27;100276.06;5075695;28;20020;-69
2022/12/18 05:41:21;;;;;;;48.67;17.83;;;;;;;-3.23;71.42;100285.13;5094006;28;20055;-67
2022/12/18 05:43:47;;;;;;;52.10;19.55;;;;;;;-3.23;71.54;100289.69;5093465;28;20027;-68
2022/12/18 05:46:16;;;;;;;43.72;18.30;;;;;;;-3.25;71.25;100294.34;5094085;28;20369;-67
2022/12/18 05:48:42;;;;;;;41.90;16.23;;;;;;;-3.25;71.65;100291.69;5094033;28;20032;-67
2022/12/18 05:51:10;;;;;;;38.22;14.68;;;;;;;-3.24;71.55;100296.03;5093485;28;20469;-68
2022/12/18 05:53:37;;;;;;;43.92;16.42;;;;;;;-3.32;70.92;100297.69;5092966;28;20509;-68
2022/12/18 05:56:05;;;;;;;44.13;16.92;;;;;;;-3.33;71.15;100293.31;5093625;28;20032;-68
2022/12/18 05:58:31;;;;;;;44.95;17.98;;;;;;;-3.35;71.36;100289.13;5093942;28;20020;-68
2022/12/18 06:00:57;;;;;;;65.88;23.80;;;;;;;-3.35;70.88;100299.84;5093483;28;20032;-68
2022/12/18 06:03:22;;;;;;;67.53;21.52;;;;;;;-3.36;70.98;100295.50;5093421;28;20029;-68
2022/12/18 06:05:48;;;;;;;54.80;18.10;;;;;;;-3.37;70.78;100297.31;5094545;28;20456;-68
2022/12/18 06:08:13;;;;;;;53.17;17.67;;;;;;;-3.37;70.96;100304.53;5093854;28;20023;-68
2022/12/18 06:10:39;;;;;;;52.03;18.40;;;;;;;-3.35;71.04;100300.69;5092405;28;20695;-67
2022/12/18 06:13:05;;;;;;;49.78;19.70;;;;;;;-3.34;71.33;100305.03;5092391;28;20028;-68
2022/12/18 06:15:31;;;;;;;48.30;17.60;;;;;;;-3.38;70.94;100306.38;5094206;28;20092;-68
2022/12/18 06:17:57;;;;;;;41.40;14.55;;;;;;;-3.42;70.95;100302.31;5094632;28;20499;-67
2022/12/18 06:20:22;;;;;;;39.97;13.40;;;;;;;-3.43;71.02;100311.38;5093144;28;20073;-68
2022/12/18 06:22:48;;;;;;;34.45;13.07;;;;;;;-3.41;71.25;100308.53;5093837;28;20059;-68
2022/12/18 06:25:13;;;;;;;38.00;13.55;;;;;;;-3.40;70.82;100315.59;5094151;28;20064;-68
2022/12/18 06:27:39;;;;;;;44.45;19.10;;;;;;;-3.39;71.45;100318.09;5094217;28;20039;-66
2022/12/18 06:30:06;;;;;;;44.92;19.20;;;;;;;-3.37;70.98;100332.19;5093209;28;20031;-66
2022/12/18 06:32:31;;;;;;;50.05;19.27;;;;;;;-3.37;70.83;100334.88;5075956;28;20052;-67
2022/12/18 06:34:57;;;;;;;55.47;21.65;;;;;;;-3.39;70.93;100338.72;5093030;28;20115;-67
2022/12/18 06:37:25;;;;;;;54.38;20.65;;;;;;;-3.40;70.98;100340.56;5094378;28;20020;-67
2022/12/18 06:39:54;;;;;;;56.00;21.40;;;;;;;-3.39;71.02;100342.25;5093555;28;20028;-66
2022/12/18 06:42:19;;;;;;;47.75;19.08;;;;;;;-3.37;71.11;100352.84;5093626;28;20447;-66
2022/12/18 06:44:45;;;;;;;55.92;19.30;;;;;;;-3.35;70.99;100340.94;5093482;28;20114;-66
2022/12/18 06:47:10;;;;;;;55.47;19.05;;;;;;;-3.34;70.79;100352.53;5093972;28;20391;-67
2022/12/18 06:49:35;;;;;;;44.88;16.15;;;;;;;-3.35;71.03;100362.41;5093107;28;20082;-67
2022/12/18 06:52:02;;;;;;;42.50;15.88;;;;;;;-3.33;70.88;100360.41;5093386;28;20116;-66
2022/12/18 06:54:27;;;;;;;42.03;15.80;;;;;;;-3.31;71.03;100362.94;5093123;28;20055;-67
2022/12/18 06:56:56;;;;;;;42.65;16.08;;;;;;;-3.31;70.95;100368.31;5093466;28;20023;-66
2022/12/18 06:59:21;;;;;;;46.63;17.30;;;;;;;-3.31;71.03;100363.75;5092998;28;20038;-67
2022/12/18 07:01:47;;;;;;;47.10;18.50;;;;;;;-3.31;70.76;100363.75;5092584;28;20028;-67
2022/12/18 07:04:12;;;;;;;47.08;17.00;;;;;;;-3.29;70.88;100364.44;5074150;28;20059;-66
2022/12/18 07:06:37;;;;;;;50.10;17.25;;;;;;;-3.30;70.83;100370.81;5093467;28;20024;-66
2022/12/18 07:09:03;;;;;;;50.50;18.13;;;;;;;-3.29;70.77;100372.50;5093585;28;20074;-66
2022/12/18 07:11:28;;;;;;;51.55;17.60;;;;;;;-3.29;70.90;100377.88;5092895;28;20515;-66
2022/12/18 07:13:54;;;;;;;47.15;20.02;;;;;;;-3.27;70.75;100377.72;5092111;28;20040;-66
2022/12/18 07:16:20;;;;;;;54.03;19.02;;;;;;;-3.24;70.86;100379.22;5092905;28;20024;-66
2022/12/18 07:18:46;;;;;;;52.42;19.98;;;;;;;-3.25;70.63;100375.69;5092648;28;20426;-66
2022/12/18 07:21:14;;;;;;;61.15;20.70;;;;;;;-3.26;70.88;100375.88;5092062;28;20055;-66
2022/12/18 07:23:40;;;;;;;59.13;21.70;;;;;;;-3.25;70.58;100383.75;5092877;28;20063;-67
2022/12/18 07:26:17;;;;;;;53.50;18.75;;;;;;;-3.23;71.00;100389.78;5092934;28;20055;-66
2022/12/18 07:28:42;;;;;;;56.08;19.23;;;;;;;-3.20;70.61;100386.78;5092867;28;20080;-66
2022/12/18 07:31:15;;;;;;;51.67;18.63;;;;;;;-3.19;70.56;100388.47;5093055;28;20036;-67
2022/12/18 07:33:40;;;;;;;51.30;19.02;;;;;;;-3.18;70.32;100389.34;5089311;28;20077;-66
2022/12/18 07:36:07;;;;;;;57.63;20.63;;;;;;;-3.21;70.63;100397.72;5092180;28;20379;-67
2022/12/18 07:38:37;;;;;;;56.75;21.85;;;;;;;-3.20;70.70;100396.72;5092553;28;20490;-66
2022/12/18 07:41:09;;;;;;;51.40;18.35;;;;;;;-3.18;70.74;100406.28;5074396;28;20047;-67
2022/12/18 07:43:35;;;;;;;45.50;17.98;;;;;;;-3.15;70.72;100397.91;5091580;28;20032;-66
2022/12/18 07:46:01;;;;;;;46.10;16.77;;;;;;;-3.12;70.50;100401.28;5092193;28;20129;-66
2022/12/18 07:48:27;;;;;;;47.38;17.80;;;;;;;-3.12;70.79;100404.81;5091030;28;20464;-66
2022/12/18 07:50:52;;;;;;;52.40;18.35;;;;;;;-3.10;70.61;100400.13;5091427;28;20036;-66
2022/12/18 07:53:17;;;;;;;74.13;26.35;;;;;;;-3.08;70.58;100403.50;5091870;28;20041;-66
2022/12/18 07:55:43;;;;;;;79.90;28.80;;;;;;;-3.10;70.75;100402.81;5091286;28;20036;-66
2022/12/18 07:58:08;;;;;;;75.32;25.83;;;;;;;-3.11;70.60;100406.50;5091559;28;20035;-67
2022/12/18 08:00:34;;;;;;;58.95;20.73;;;;;;;-3.10;70.60;100401.97;5091505;28;20039;-65
2022/12/18 08:02:59;;;;;;;52.92;20.38;;;;;;;-3.12;70.09;100404.81;5090850;28;20032;-66
2022/12/18 08:05:26;;;;;;;46.83;17.92;;;;;;;-3.15;70.19;100400.59;5072910;28;20061;-67
2022/12/18 08:07:51;;;;;;;46.13;17.48;;;;;;;-3.18;70.23;100400.91;5091004;28;20032;-67
2022/12/18 08:10:17;;;;;;;51.83;19.13;;;;;;;-3.21;70.15;100405.75;5090788;28;20024;-67
2022/12/18 08:12:42;;;;;;;45.33;17.05;;;;;;;-3.21;70.28;100408.44;5091002;28;20525;-67
2022/12/18 08:15:08;;;;;;;45.75;15.70;;;;;;;-3.22;70.15;100404.91;5091036;28;20038;-67
2022/12/18 08:17:33;;;;;;;42.92;15.32;;;;;;;-3.20;70.36;100419.00;5091565;28;20039;-67
2022/12/18 08:19:59;;;;;;;42.55;15.13;;;;;;;-3.21;70.00;100417.31;5073453;28;20052;-67
2022/12/18 08:22:24;;;;;;;39.30;13.65;;;;;;;-3.22;70.27;100414.81;5091335;28;20101;-66
2022/12/18 08:24:50;;;;;;;36.63;14.65;;;;;;;-3.25;70.25;100418.63;5092058;28;20032;-67
2022/12/18 08:27:16;;;;;;;35.10;14.10;;;;;;;-3.25;69.91;100425.84;5091334;28;20032;-68
2022/12/18 08:29:41;;;;;;;41.25;15.43;;;;;;;-3.27;70.15;100428.72;5091015;28;20034;-68
2022/12/18 08:32:06;;;;;;;49.45;19.55;;;;;;;-3.26;70.22;100426.84;5090370;28;20028;-68
2022/12/18 08:34:32;;;;;;;46.65;17.70;;;;;;;-3.25;70.14;100432.06;5091504;28;20089;-67
2022/12/18 08:36:57;;;;;;;60.03;24.63;;;;;;;-3.24;70.34;100436.41;5091294;28;20106;-67
2022/12/18 08:39:23;;;;;;;57.72;23.27;;;;;;;-3.21;70.38;100436.09;5092077;28;20050;-67
2022/12/18 08:44:37;;;;;;;54.53;21.02;;;;;;;-3.17;70.20;100436.66;5091321;28;20059;-67
2022/12/18 08:44:39;;;;;;;44.47;17.65;;;;;;;-3.16;70.06;100444.53;5089269;28;20118;-65
2022/12/18 08:47:06;;;;;;;46.75;19.35;;;;;;;-3.18;69.84;100448.38;5090373;28;20028;-67
2022/12/18 08:49:33;;;;;;;43.63;17.45;;;;;;;-3.18;69.46;100457.28;5089461;28;20066;-67
2022/12/18 08:51:58;;;;;;;53.25;18.77;;;;;;;-3.20;69.83;100463.81;5089553;28;20032;-67
2022/12/18 08:54:24;;;;;;;50.97;20.45;;;;;;;-3.22;69.81;100458.56;5088745;28;20525;-69
2022/12/18 08:56:50;;;;;;;46.67;18.60;;;;;;;-3.24;69.34;100465.94;5089261;28;20024;-66
2022/12/18 08:59:16;;;;;;;56.53;18.73;;;;;;;-3.23;69.89;100458.75;5089460;28;20652;-66
2022/12/18 09:01:42;;;;;;;49.53;15.65;;;;;;;-3.24;69.76;100457.06;5089954;28;20071;-68
2022/12/18 09:04:09;;;;;;;43.20;15.80;;;;;;;-3.30;69.85;100454.00;5088845;28;20074;-67
2022/12/18 09:06:34;;;;;;;46.95;16.30;;;;;;;-3.32;69.37;100453.31;5089779;28;20032;-67
2022/12/18 09:09:00;;;;;;;49.42;18.80;;;;;;;-3.34;69.40;100457.16;5090332;28;20476;-67
2022/12/18 09:11:26;;;;;;;50.10;18.92;;;;;;;-3.36;69.61;100453.78;5088489;28;20016;-68
2022/12/18 09:13:53;;;;;;;44.47;15.73;;;;;;;-3.38;69.56;100466.53;5089345;28;20090;-67
2022/12/18 09:16:20;;;;;;;45.83;18.20;;;;;;;-3.37;69.18;100470.88;5089834;28;20489;-67
2022/12/18 09:18:46;;;;;;;44.63;19.92;;;;;;;-3.38;69.59;100480.75;5089264;28;20115;-67
2022/12/18 09:21:17;;;;;;;43.63;18.27;;;;;;;-3.39;69.44;100464.84;5086929;28;20043;-67
2022/12/18 09:23:44;;;;;;;50.58;19.77;;;;;;;-3.39;69.48;100468.34;5086969;28;20118;-66
2022/12/18 09:26:10;;;;;;;44.88;17.52;;;;;;;-3.44;69.32;100470.66;5087896;28;20102;-67
2022/12/18 09:28:36;;;;;;;44.63;17.83;;;;;;;-3.45;69.19;100467.13;5088595;28;20031;-68
2022/12/18 09:31:07;;;;;;;48.15;20.17;;;;;;;-3.43;69.44;100458.91;5084643;28;20016;-67
2022/12/18 09:33:32;;;;;;;65.85;25.45;;;;;;;-3.42;69.87;100460.59;5083456;28;20041;-67
2022/12/18 09:35:57;;;;;;;118.00;36.97;;;;;;;-3.40;69.57;100465.84;5089106;28;20469;-68
2022/12/18 09:38:23;;;;;;;63.20;22.17;;;;;;;-3.39;69.34;100462.16;5089734;28;20024;-67
2022/12/18 09:40:52;;;;;;;54.95;20.67;;;;;;;-3.39;69.31;100468.34;5088707;28;20377;-68
2022/12/18 09:43:24;;;;;;;49.60;18.90;;;;;;;-3.37;69.34;100454.78;5088665;28;20028;-67
2022/12/18 09:45:52;;;;;;;53.58;20.05;;;;;;;-3.38;69.17;100455.78;5089648;28;20063;-67
2022/12/18 09:48:35;;;;;;;56.88;18.92;;;;;;;-3.37;69.51;100463.66;5083270;28;20108;-66
2022/12/18 09:51:08;;;;;;;48.40;19.30;;;;;;;-3.34;69.30;100455.31;5081393;28;20496;-65
2022/12/18 09:53:37;;;;;;;50.17;18.50;;;;;;;-3.31;69.34;100471.09;5087190;28;20028;-67
2022/12/18 09:56:05;;;;;;;45.90;17.30;;;;;;;-3.30;69.11;100477.31;5084648;28;20020;-68
2022/12/18 09:58:45;;;;;;;43.42;16.92;;;;;;;-3.29;69.33;100479.84;5087404;28;20097;-66
2022/12/18 10:01:21;;;;;;;49.63;17.73;;;;;;;-3.26;69.18;100483.22;5066935;28;20051;-67
2022/12/18 10:03:47;;;;;;;47.60;18.67;;;;;;;-3.25;69.25;100477.66;5085288;28;20469;-67
2022/12/18 10:06:20;;;;;;;48.47;16.60;;;;;;;-3.26;69.04;100477.84;5090978;28;20024;-67
2022/12/18 10:09:01;;;;;;;47.38;18.23;;;;;;;-3.30;68.90;100478.16;5088945;28;20035;-67
2022/12/18 10:11:48;;;;;;;41.40;17.83;;;;;;;-3.26;69.00;100469.78;5088864;28;20492;-67
2022/12/18 10:14:25;;;;;;;46.78;17.13;;;;;;;-3.25;68.93;100463.44;5085281;28;20468;-67
2022/12/18 10:17:10;;;;;;;41.85;16.27;;;;;;;-3.26;69.27;100451.00;5087122;28;20032;-67
2022/12/18 10:19:49;;;;;;;44.35;16.48;;;;;;;-3.23;68.87;100442.66;5089299;28;20107;-67
2022/12/18 10:22:43;;;;;;;42.15;16.00;;;;;;;-3.25;68.95;100448.16;5089804;28;20113;-67
2022/12/18 10:25:27;;;;;;;43.28;15.90;;;;;;;-3.23;69.37;100450.69;5088540;28;20040;-67
2022/12/18 10:27:57;;;;;;;45.55;15.38;;;;;;;-3.21;69.30;100456.75;5090788;28;20533;-67
2022/12/18 10:30:24;;;;;;;45.80;17.25;;;;;;;-3.19;68.99;100452.91;5085642;28;20032;-66
2022/12/18 10:32:50;;;;;;;46.22;17.77;;;;;;;-3.18;68.71;100451.06;5089885;28;20067;-66
2022/12/18 10:35:22;;;;;;;46.53;15.43;;;;;;;-3.19;68.77;100449.38;5086697;28;20052;-66
2022/12/18 10:38:04;;;;;;;37.35;14.43;;;;;;;-3.18;68.67;100438.47;5090491;28;20028;-67
2022/12/18 10:40:29;;;;;;;46.28;15.15;;;;;;;-3.14;68.99;100439.03;5083657;28;20032;-67
2022/12/18 10:43:14;;;;;;;43.13;15.00;;;;;;;-3.11;68.95;100437.84;5088888;28;20089;-67
2022/12/18 10:45:41;;;;;;;45.35;15.45;;;;;;;-3.06;68.63;100436.41;5089413;28;20474;-68
2022/12/18 10:48:21;;;;;;;38.00;15.38;;;;;;;-3.04;68.64;100422.81;5089450;28;20028;-67
2022/12/18 10:50:49;;;;;;;43.47;14.90;;;;;;;-2.97;68.67;100428.38;5055720;28;20058;-69
2022/12/18 10:53:26;;;;;;;45.35;16.90;;;;;;;-2.96;68.81;100435.44;5086117;28;20111;-67
2022/12/18 10:55:55;;;;;;;44.95;15.73;;;;;;;-2.96;68.85;100430.06;5087005;28;20024;-65
2022/12/18 10:58:34;;;;;;;51.40;18.77;;;;;;;-2.98;68.57;100416.81;5090696;28;20523;-67
2022/12/18 11:01:06;;;;;;;42.42;17.40;;;;;;;-2.99;68.41;100418.63;5090600;28;20043;-65
2022/12/18 11:03:46;;;;;;;48.10;17.20;;;;;;;-3.01;68.65;100427.84;5088794;28;20028;-66
2022/12/18 11:06:11;;;;;;;;;;;;;;;-3.00;68.43;100414.25;5089975;28;20020;-67
2022/12/18 11:08:37;;;;;;;51.60;17.77;;;;;;;-2.98;68.33;100411.44;5087465;28;19947;-66
2022/12/18 11:11:06;;;;;;;48.00;16.50;;;;;;;-3.03;68.16;100403.84;5086538;28;20039;-65
2022/12/18 11:13:32;;;;;;;46.27;16.70;;;;;;;-3.03;68.72;100400.31;5066068;28;20035;-66
2022/12/18 11:15:59;;;;;;;49.45;18.63;;;;;;;-3.04;68.37;100409.38;5090370;28;20278;-66
2022/12/18 11:18:32;;;;;;;50.65;17.45;;;;;;;-3.06;68.36;100396.13;5089837;28;20024;-65
2022/12/18 11:21:01;;;;;;;38.13;16.77;;;;;;;-3.03;68.55;100405.69;5085498;28;20071;-66